sensor_id;sensor_type;location;lat;lon;timestamp;P1;durP1;ratioP1;P2;durP2;ratioP2
49450;SDS011;35336;48.400;10.886;2024-01-30T00:00:00;33.27;;;22.40;;
49450;SDS011;35336;48.400;10.886;2024-01-30T00:00:15;32.33;;;21.47;;
49450;SDS011;35336;48.400;10.886;2024-01-30T00:00:31;31.52;;;20.85;;
49450;SDS011;35336;48.400;10.886;2024-01-30T00:00:46;31.40;;;21.23;;
49450;SDS011;35336;48.400;10.886;2024-01-30T00:01:01;32.53;;;21.80;;
49450;SDS011;35336;48.400;10.886;2024-01-30T00:01:16;32.53;;;21.87;;
49450;SDS011;35336;48.400;10.886;2024-01-30T00:01:32;33.88;;;21.17;;
49450;SDS011;35336;48.400;10.886;2024-01-30T00:01:47;34.50;;;21.33;;
49450;SDS011;35336;48.400;10.886;2024-01-30T00:02:02;31.77;;;21.40;;
49450;SDS011;35336;48.400;10.886;2024-01-30T00:02:18;32.30;;;21.07;;
49450;SDS011;35336;48.400;10.886;2024-01-30T00:02:33;34.40;;;22.00;;
49450;SDS011;35336;48.400;10.886;2024-01-30T00:02:48;33.57;;;22.43;;
49450;SDS011;35336;48.400;10.886;2024-01-30T00:03:03;32.87;;;22.13;;
49450;SDS011;35336;48.400;10.886;2024-01-30T00:03:19;31.08;;;21.55;;
49450;SDS011;35336;48.400;10.886;2024-01-30T00:03:34;30.00;;;21.07;;
49450;SDS011;35336;48.400;10.886;2024-01-30T00:03:50;32.73;;;21.23;;
49450;SDS011;35336;48.400;10.886;2024-01-30T00:04:05;33.83;;;20.93;;
49450;SDS011;35336;48.400;10.886;2024-01-30T00:04:20;30.50;;;20.23;;
49450;SDS011;35336;48.400;10.886;2024-01-30T00:04:38;29.00;;;20.27;;
49450;SDS011;35336;48.400;10.886;2024-01-30T00:04:53;29.73;;;20.60;;
49450;SDS011;35336;48.400;10.886;2024-01-30T00:05:08;30.70;;;21.23;;
49450;SDS011;35336;48.400;10.886;2024-01-30T00:05:23;32.80;;;22.75;;
49450;SDS011;35336;48.400;10.886;2024-01-30T00:05:39;31.80;;;22.10;;
49450;SDS011;35336;48.400;10.886;2024-01-30T00:05:55;33.17;;;21.60;;
49450;SDS011;35336;48.400;10.886;2024-01-30T00:06:10;35.70;;;22.63;;
49450;SDS011;35336;48.400;10.886;2024-01-30T00:06:26;36.67;;;22.48;;
49450;SDS011;35336;48.400;10.886;2024-01-30T00:06:41;36.30;;;22.13;;
49450;SDS011;35336;48.400;10.886;2024-01-30T00:06:59;33.22;;;22.00;;
49450;SDS011;35336;48.400;10.886;2024-01-30T00:07:14;33.20;;;21.73;;
49450;SDS011;35336;48.400;10.886;2024-01-30T00:07:30;33.33;;;21.80;;
49450;SDS011;35336;48.400;10.886;2024-01-30T00:07:45;33.67;;;21.55;;
49450;SDS011;35336;48.400;10.886;2024-01-30T00:08:00;34.13;;;21.63;;
49450;SDS011;35336;48.400;10.886;2024-01-30T00:08:15;34.57;;;22.93;;
49450;SDS011;35336;48.400;10.886;2024-01-30T00:08:31;33.87;;;22.60;;
49450;SDS011;35336;48.400;10.886;2024-01-30T00:08:46;34.40;;;22.33;;
49450;SDS011;35336;48.400;10.886;2024-01-30T00:09:02;35.97;;;22.95;;
49450;SDS011;35336;48.400;10.886;2024-01-30T00:09:17;35.00;;;22.87;;
49450;SDS011;35336;48.400;10.886;2024-01-30T00:09:32;34.55;;;23.05;;
49450;SDS011;35336;48.400;10.886;2024-01-30T00:09:48;34.90;;;23.83;;
49450;SDS011;35336;48.400;10.886;2024-01-30T00:10:03;35.00;;;23.53;;
49450;SDS011;35336;48.400;10.886;2024-01-30T00:10:18;35.70;;;22.88;;
49450;SDS011;35336;48.400;10.886;2024-01-30T00:10:34;35.63;;;22.63;;
49450;SDS011;35336;48.400;10.886;2024-01-30T00:10:49;36.13;;;22.43;;
49450;SDS011;35336;48.400;10.886;2024-01-30T00:11:04;35.80;;;23.10;;
49450;SDS011;35336;48.400;10.886;2024-01-30T00:11:24;35.38;;;22.92;;
49450;SDS011;35336;48.400;10.886;2024-01-30T00:11:40;34.30;;;22.33;;
49450;SDS011;35336;48.400;10.886;2024-01-30T00:11:55;32.60;;;21.83;;
49450;SDS011;35336;48.400;10.886;2024-01-30T00:12:10;31.13;;;21.67;;
49450;SDS011;35336;48.400;10.886;2024-01-30T00:12:26;31.20;;;22.17;;
49450;SDS011;35336;48.400;10.886;2024-01-30T00:12:43;31.42;;;22.00;;
49450;SDS011;35336;48.400;10.886;2024-01-30T00:12:59;31.65;;;22.38;;
49450;SDS011;35336;48.400;10.886;2024-01-30T00:13:14;33.27;;;23.43;;
49450;SDS011;35336;48.400;10.886;2024-01-30T00:13:29;34.05;;;22.73;;
49450;SDS011;35336;48.400;10.886;2024-01-30T00:13:44;34.27;;;21.67;;
49450;SDS011;35336;48.400;10.886;2024-01-30T00:14:00;35.33;;;22.13;;
49450;SDS011;35336;48.400;10.886;2024-01-30T00:14:15;35.97;;;23.10;;
49450;SDS011;35336;48.400;10.886;2024-01-30T00:14:30;35.03;;;23.53;;
49450;SDS011;35336;48.400;10.886;2024-01-30T00:14:45;34.03;;;23.02;;
49450;SDS011;35336;48.400;10.886;2024-01-30T00:15:01;34.70;;;22.57;;
49450;SDS011;35336;48.400;10.886;2024-01-30T00:15:16;35.97;;;24.00;;
49450;SDS011;35336;48.400;10.886;2024-01-30T00:15:31;35.67;;;24.52;;
49450;SDS011;35336;48.400;10.886;2024-01-30T00:15:47;36.93;;;23.57;;
49450;SDS011;35336;48.400;10.886;2024-01-30T00:16:02;36.93;;;23.13;;
49450;SDS011;35336;48.400;10.886;2024-01-30T00:16:20;37.07;;;23.47;;
49450;SDS011;35336;48.400;10.886;2024-01-30T00:16:36;37.47;;;24.80;;
49450;SDS011;35336;48.400;10.886;2024-01-30T00:16:51;37.50;;;24.60;;
49450;SDS011;35336;48.400;10.886;2024-01-30T00:17:07;38.53;;;24.37;;
49450;SDS011;35336;48.400;10.886;2024-01-30T00:17:22;35.97;;;24.15;;
49450;SDS011;35336;48.400;10.886;2024-01-30T00:17:37;33.67;;;23.73;;
49450;SDS011;35336;48.400;10.886;2024-01-30T00:17:52;34.63;;;24.03;;
49450;SDS011;35336;48.400;10.886;2024-01-30T00:18:08;34.07;;;23.37;;
49450;SDS011;35336;48.400;10.886;2024-01-30T00:18:23;34.72;;;22.98;;
49450;SDS011;35336;48.400;10.886;2024-01-30T00:18:38;37.53;;;24.73;;
49450;SDS011;35336;48.400;10.886;2024-01-30T00:18:54;36.00;;;24.20;;
49450;SDS011;35336;48.400;10.886;2024-01-30T00:19:09;34.83;;;22.95;;
49450;SDS011;35336;48.400;10.886;2024-01-30T00:19:24;34.93;;;23.03;;
49450;SDS011;35336;48.400;10.886;2024-01-30T00:19:40;34.87;;;23.37;;
49450;SDS011;35336;48.400;10.886;2024-01-30T00:19:55;36.30;;;23.30;;
49450;SDS011;35336;48.400;10.886;2024-01-30T00:20:13;35.78;;;22.58;;
49450;SDS011;35336;48.400;10.886;2024-01-30T00:20:28;33.53;;;22.67;;
49450;SDS011;35336;48.400;10.886;2024-01-30T00:20:43;33.63;;;23.60;;
49450;SDS011;35336;48.400;10.886;2024-01-30T00:20:59;33.53;;;23.00;;
49450;SDS011;35336;48.400;10.886;2024-01-30T00:21:14;34.53;;;23.27;;
49450;SDS011;35336;48.400;10.886;2024-01-30T00:21:29;35.33;;;24.03;;
49450;SDS011;35336;48.400;10.886;2024-01-30T00:21:44;35.20;;;23.10;;
49450;SDS011;35336;48.400;10.886;2024-01-30T00:22:00;36.70;;;23.65;;
49450;SDS011;35336;48.400;10.886;2024-01-30T00:22:15;35.50;;;23.27;;
49450;SDS011;35336;48.400;10.886;2024-01-30T00:22:33;33.70;;;22.60;;
49450;SDS011;35336;48.400;10.886;2024-01-30T00:22:48;34.78;;;22.73;;
49450;SDS011;35336;48.400;10.886;2024-01-30T00:23:04;33.73;;;22.83;;
49450;SDS011;35336;48.400;10.886;2024-01-30T00:23:19;36.73;;;23.20;;
49450;SDS011;35336;48.400;10.886;2024-01-30T00:23:36;37.47;;;23.30;;
49450;SDS011;35336;48.400;10.886;2024-01-30T00:23:51;32.05;;;22.35;;
49450;SDS011;35336;48.400;10.886;2024-01-30T00:24:07;32.83;;;21.93;;
49450;SDS011;35336;48.400;10.886;2024-01-30T00:24:24;33.65;;;22.55;;
49450;SDS011;35336;48.400;10.886;2024-01-30T00:24:39;33.67;;;21.98;;
49450;SDS011;35336;48.400;10.886;2024-01-30T00:24:55;34.33;;;22.37;;
49450;SDS011;35336;48.400;10.886;2024-01-30T00:25:10;34.50;;;22.43;;
49450;SDS011;35336;48.400;10.886;2024-01-30T00:25:25;33.93;;;22.57;;
49450;SDS011;35336;48.400;10.886;2024-01-30T00:25:40;32.77;;;22.87;;
49450;SDS011;35336;48.400;10.886;2024-01-30T00:25:56;34.20;;;23.00;;
49450;SDS011;35336;48.400;10.886;2024-01-30T00:26:11;34.20;;;22.50;;
49450;SDS011;35336;48.400;10.886;2024-01-30T00:26:29;33.28;;;22.65;;
49450;SDS011;35336;48.400;10.886;2024-01-30T00:26:49;33.47;;;22.38;;
49450;SDS011;35336;48.400;10.886;2024-01-30T00:27:04;34.10;;;22.58;;
49450;SDS011;35336;48.400;10.886;2024-01-30T00:27:20;33.70;;;22.93;;
49450;SDS011;35336;48.400;10.886;2024-01-30T00:27:35;32.05;;;22.73;;
49450;SDS011;35336;48.400;10.886;2024-01-30T00:27:50;29.87;;;21.67;;
49450;SDS011;35336;48.400;10.886;2024-01-30T00:28:05;32.00;;;21.43;;
49450;SDS011;35336;48.400;10.886;2024-01-30T00:28:21;33.03;;;21.33;;
49450;SDS011;35336;48.400;10.886;2024-01-30T00:28:36;32.97;;;21.10;;
49450;SDS011;35336;48.400;10.886;2024-01-30T00:28:54;33.17;;;21.75;;
49450;SDS011;35336;48.400;10.886;2024-01-30T00:29:09;34.40;;;22.98;;
49450;SDS011;35336;48.400;10.886;2024-01-30T00:29:25;36.87;;;23.47;;
49450;SDS011;35336;48.400;10.886;2024-01-30T00:29:40;37.33;;;22.57;;
49450;SDS011;35336;48.400;10.886;2024-01-30T00:29:55;33.90;;;21.27;;
49450;SDS011;35336;48.400;10.886;2024-01-30T00:30:10;31.57;;;22.07;;
49450;SDS011;35336;48.400;10.886;2024-01-30T00:30:29;32.58;;;21.90;;
49450;SDS011;35336;48.400;10.886;2024-01-30T00:30:44;30.70;;;21.00;;
49450;SDS011;35336;48.400;10.886;2024-01-30T00:30:59;30.53;;;21.83;;
49450;SDS011;35336;48.400;10.886;2024-01-30T00:31:15;33.22;;;23.05;;
49450;SDS011;35336;48.400;10.886;2024-01-30T00:31:30;35.63;;;22.57;;
49450;SDS011;35336;48.400;10.886;2024-01-30T00:31:46;36.00;;;22.42;;
49450;SDS011;35336;48.400;10.886;2024-01-30T00:32:01;33.70;;;22.80;;
49450;SDS011;35336;48.400;10.886;2024-01-30T00:32:17;31.30;;;22.10;;
49450;SDS011;35336;48.400;10.886;2024-01-30T00:32:32;30.42;;;21.33;;
49450;SDS011;35336;48.400;10.886;2024-01-30T00:32:47;31.08;;;21.08;;
49450;SDS011;35336;48.400;10.886;2024-01-30T00:33:02;30.50;;;20.50;;
49450;SDS011;35336;48.400;10.886;2024-01-30T00:33:18;31.13;;;21.07;;
49450;SDS011;35336;48.400;10.886;2024-01-30T00:33:33;32.63;;;21.92;;
49450;SDS011;35336;48.400;10.886;2024-01-30T00:33:48;33.40;;;22.10;;
49450;SDS011;35336;48.400;10.886;2024-01-30T00:34:04;33.73;;;21.63;;
49450;SDS011;35336;48.400;10.886;2024-01-30T00:34:21;34.37;;;21.70;;
49450;SDS011;35336;48.400;10.886;2024-01-30T00:34:39;34.78;;;21.77;;
49450;SDS011;35336;48.400;10.886;2024-01-30T00:34:54;31.43;;;21.20;;
49450;SDS011;35336;48.400;10.886;2024-01-30T00:35:09;30.60;;;20.77;;
49450;SDS011;35336;48.400;10.886;2024-01-30T00:35:25;30.67;;;20.90;;
49450;SDS011;35336;48.400;10.886;2024-01-30T00:35:40;30.50;;;21.20;;
49450;SDS011;35336;48.400;10.886;2024-01-30T00:35:55;32.30;;;21.33;;
49450;SDS011;35336;48.400;10.886;2024-01-30T00:36:11;32.15;;;21.70;;
49450;SDS011;35336;48.400;10.886;2024-01-30T00:36:26;30.97;;;21.40;;
49450;SDS011;35336;48.400;10.886;2024-01-30T00:36:44;31.00;;;21.03;;
49450;SDS011;35336;48.400;10.886;2024-01-30T00:36:59;32.17;;;21.08;;
49450;SDS011;35336;48.400;10.886;2024-01-30T00:37:14;33.90;;;22.07;;
49450;SDS011;35336;48.400;10.886;2024-01-30T00:37:32;32.83;;;22.38;;
49450;SDS011;35336;48.400;10.886;2024-01-30T00:37:47;30.65;;;20.95;;
49450;SDS011;35336;48.400;10.886;2024-01-30T00:38:02;34.13;;;21.23;;
49450;SDS011;35336;48.400;10.886;2024-01-30T00:38:18;35.13;;;21.73;;
49450;SDS011;35336;48.400;10.886;2024-01-30T00:38:35;34.00;;;21.85;;
49450;SDS011;35336;48.400;10.886;2024-01-30T00:38:50;33.08;;;22.70;;
49450;SDS011;35336;48.400;10.886;2024-01-30T00:39:06;32.40;;;22.43;;
49450;SDS011;35336;48.400;10.886;2024-01-30T00:39:21;32.47;;;21.67;;
49450;SDS011;35336;48.400;10.886;2024-01-30T00:39:36;32.20;;;21.73;;
49450;SDS011;35336;48.400;10.886;2024-01-30T00:39:51;30.60;;;21.30;;
49450;SDS011;35336;48.400;10.886;2024-01-30T00:40:07;31.73;;;21.37;;
49450;SDS011;35336;48.400;10.886;2024-01-30T00:40:22;34.30;;;22.42;;
49450;SDS011;35336;48.400;10.886;2024-01-30T00:40:38;32.73;;;22.27;;
49450;SDS011;35336;48.400;10.886;2024-01-30T00:40:56;31.90;;;20.90;;
49450;SDS011;35336;48.400;10.886;2024-01-30T00:41:11;33.88;;;20.20;;
49450;SDS011;35336;48.400;10.886;2024-01-30T00:41:26;33.40;;;20.53;;
49450;SDS011;35336;48.400;10.886;2024-01-30T00:41:41;29.73;;;20.90;;
49450;SDS011;35336;48.400;10.886;2024-01-30T00:41:57;29.53;;;21.13;;
49450;SDS011;35336;48.400;10.886;2024-01-30T00:42:12;32.83;;;21.65;;
49450;SDS011;35336;48.400;10.886;2024-01-30T00:42:29;32.23;;;20.93;;
49450;SDS011;35336;48.400;10.886;2024-01-30T00:42:44;29.65;;;20.75;;
49450;SDS011;35336;48.400;10.886;2024-01-30T00:43:00;30.10;;;20.90;;
49450;SDS011;35336;48.400;10.886;2024-01-30T00:43:15;32.40;;;21.15;;
49450;SDS011;35336;48.400;10.886;2024-01-30T00:43:33;34.10;;;21.40;;
49450;SDS011;35336;48.400;10.886;2024-01-30T00:43:48;32.30;;;21.17;;
49450;SDS011;35336;48.400;10.886;2024-01-30T00:44:05;32.35;;;21.10;;
49450;SDS011;35336;48.400;10.886;2024-01-30T00:44:23;32.10;;;20.87;;
49450;SDS011;35336;48.400;10.886;2024-01-30T00:44:38;30.73;;;21.02;;
49450;SDS011;35336;48.400;10.886;2024-01-30T00:44:54;30.20;;;20.60;;
49450;SDS011;35336;48.400;10.886;2024-01-30T00:45:14;30.60;;;20.70;;
49450;SDS011;35336;48.400;10.886;2024-01-30T00:45:30;29.30;;;20.10;;
49450;SDS011;35336;48.400;10.886;2024-01-30T00:45:48;30.85;;;21.13;;
49450;SDS011;35336;48.400;10.886;2024-01-30T00:46:03;32.33;;;21.63;;
49450;SDS011;35336;48.400;10.886;2024-01-30T00:46:21;32.03;;;20.98;;
49450;SDS011;35336;48.400;10.886;2024-01-30T00:46:36;32.03;;;21.07;;
49450;SDS011;35336;48.400;10.886;2024-01-30T00:46:51;32.07;;;20.57;;
49450;SDS011;35336;48.400;10.886;2024-01-30T00:47:10;30.27;;;20.53;;
49450;SDS011;35336;48.400;10.886;2024-01-30T00:47:27;31.10;;;21.15;;
49450;SDS011;35336;48.400;10.886;2024-01-30T00:47:43;31.80;;;21.20;;
49450;SDS011;35336;48.400;10.886;2024-01-30T00:47:58;29.45;;;20.70;;
49450;SDS011;35336;48.400;10.886;2024-01-30T00:48:14;29.67;;;20.67;;
49450;SDS011;35336;48.400;10.886;2024-01-30T00:48:29;32.00;;;21.08;;
49450;SDS011;35336;48.400;10.886;2024-01-30T00:48:44;33.13;;;21.73;;
49450;SDS011;35336;48.400;10.886;2024-01-30T00:49:00;30.70;;;20.97;;
49450;SDS011;35336;48.400;10.886;2024-01-30T00:49:15;30.10;;;20.43;;
49450;SDS011;35336;48.400;10.886;2024-01-30T00:49:30;31.17;;;20.43;;
49450;SDS011;35336;48.400;10.886;2024-01-30T00:49:45;30.27;;;20.33;;
49450;SDS011;35336;48.400;10.886;2024-01-30T00:50:01;30.70;;;20.57;;
49450;SDS011;35336;48.400;10.886;2024-01-30T00:50:16;30.40;;;20.43;;
49450;SDS011;35336;48.400;10.886;2024-01-30T00:50:33;30.00;;;20.30;;
49450;SDS011;35336;48.400;10.886;2024-01-30T00:50:49;30.85;;;20.38;;
49450;SDS011;35336;48.400;10.886;2024-01-30T00:51:04;31.00;;;20.93;;
49450;SDS011;35336;48.400;10.886;2024-01-30T00:51:22;32.78;;;21.73;;
49450;SDS011;35336;48.400;10.886;2024-01-30T00:51:37;29.87;;;20.40;;
49450;SDS011;35336;48.400;10.886;2024-01-30T00:51:53;28.57;;;19.73;;
49450;SDS011;35336;48.400;10.886;2024-01-30T00:52:08;31.77;;;20.33;;
49450;SDS011;35336;48.400;10.886;2024-01-30T00:52:23;32.03;;;20.93;;
49450;SDS011;35336;48.400;10.886;2024-01-30T00:52:38;30.90;;;20.87;;
49450;SDS011;35336;48.400;10.886;2024-01-30T00:52:54;29.67;;;19.83;;
49450;SDS011;35336;48.400;10.886;2024-01-30T00:53:09;30.58;;;20.00;;
49450;SDS011;35336;48.400;10.886;2024-01-30T00:53:24;32.90;;;20.33;;
49450;SDS011;35336;48.400;10.886;2024-01-30T00:53:40;30.87;;;19.67;;
49450;SDS011;35336;48.400;10.886;2024-01-30T00:53:55;30.07;;;20.23;;
49450;SDS011;35336;48.400;10.886;2024-01-30T00:54:10;32.90;;;21.17;;
49450;SDS011;35336;48.400;10.886;2024-01-30T00:54:26;31.73;;;20.57;;
49450;SDS011;35336;48.400;10.886;2024-01-30T00:54:43;31.77;;;20.40;;
49450;SDS011;35336;48.400;10.886;2024-01-30T00:54:59;32.40;;;20.83;;
49450;SDS011;35336;48.400;10.886;2024-01-30T00:55:14;28.08;;;20.23;;
49450;SDS011;35336;48.400;10.886;2024-01-30T00:55:30;27.83;;;20.13;;
49450;SDS011;35336;48.400;10.886;2024-01-30T00:55:45;28.93;;;20.63;;
49450;SDS011;35336;48.400;10.886;2024-01-30T00:56:01;29.60;;;21.13;;
49450;SDS011;35336;48.400;10.886;2024-01-30T00:56:16;30.83;;;21.37;;
49450;SDS011;35336;48.400;10.886;2024-01-30T00:56:31;30.70;;;20.93;;
49450;SDS011;35336;48.400;10.886;2024-01-30T00:56:47;30.80;;;20.70;;
49450;SDS011;35336;48.400;10.886;2024-01-30T00:57:02;29.87;;;20.13;;
49450;SDS011;35336;48.400;10.886;2024-01-30T00:57:18;30.73;;;20.57;;
49450;SDS011;35336;48.400;10.886;2024-01-30T00:57:33;30.98;;;20.70;;
49450;SDS011;35336;48.400;10.886;2024-01-30T00:57:48;30.00;;;19.70;;
49450;SDS011;35336;48.400;10.886;2024-01-30T00:58:04;31.47;;;20.03;;
49450;SDS011;35336;48.400;10.886;2024-01-30T00:58:21;32.22;;;21.05;;
49450;SDS011;35336;48.400;10.886;2024-01-30T00:58:36;30.13;;;20.53;;
49450;SDS011;35336;48.400;10.886;2024-01-30T00:58:54;30.77;;;20.63;;
49450;SDS011;35336;48.400;10.886;2024-01-30T00:59:09;30.80;;;20.83;;
49450;SDS011;35336;48.400;10.886;2024-01-30T00:59:25;31.60;;;20.95;;
49450;SDS011;35336;48.400;10.886;2024-01-30T00:59:43;32.10;;;21.47;;
49450;SDS011;35336;48.400;10.886;2024-01-30T01:00:00;35.80;;;21.52;;
49450;SDS011;35336;48.400;10.886;2024-01-30T01:00:16;35.97;;;21.67;;
49450;SDS011;35336;48.400;10.886;2024-01-30T01:00:31;32.87;;;21.33;;
49450;SDS011;35336;48.400;10.886;2024-01-30T01:00:47;31.67;;;21.35;;
49450;SDS011;35336;48.400;10.886;2024-01-30T01:01:05;32.97;;;22.03;;
49450;SDS011;35336;48.400;10.886;2024-01-30T01:01:20;33.15;;;21.98;;
49450;SDS011;35336;48.400;10.886;2024-01-30T01:01:36;31.23;;;21.20;;
49450;SDS011;35336;48.400;10.886;2024-01-30T01:01:51;32.17;;;21.67;;
49450;SDS011;35336;48.400;10.886;2024-01-30T01:02:06;33.77;;;21.87;;
49450;SDS011;35336;48.400;10.886;2024-01-30T01:02:21;34.37;;;21.47;;
49450;SDS011;35336;48.400;10.886;2024-01-30T01:02:37;34.23;;;22.17;;
49450;SDS011;35336;48.400;10.886;2024-01-30T01:02:52;32.47;;;21.92;;
49450;SDS011;35336;48.400;10.886;2024-01-30T01:03:07;32.43;;;21.53;;
49450;SDS011;35336;48.400;10.886;2024-01-30T01:03:22;34.60;;;22.20;;
49450;SDS011;35336;48.400;10.886;2024-01-30T01:03:38;34.60;;;23.20;;
49450;SDS011;35336;48.400;10.886;2024-01-30T01:03:58;32.92;;;22.77;;
49450;SDS011;35336;48.400;10.886;2024-01-30T01:04:13;33.17;;;21.95;;
49450;SDS011;35336;48.400;10.886;2024-01-30T01:04:29;32.37;;;22.23;;
49450;SDS011;35336;48.400;10.886;2024-01-30T01:04:44;34.53;;;23.13;;
49450;SDS011;35336;48.400;10.886;2024-01-30T01:05:00;32.95;;;22.38;;
49450;SDS011;35336;48.400;10.886;2024-01-30T01:05:15;31.83;;;22.27;;
49450;SDS011;35336;48.400;10.886;2024-01-30T01:05:32;35.57;;;23.43;;
49450;SDS011;35336;48.400;10.886;2024-01-30T01:05:48;34.15;;;22.60;;
49450;SDS011;35336;48.400;10.886;2024-01-30T01:06:05;32.13;;;21.53;;
49450;SDS011;35336;48.400;10.886;2024-01-30T01:06:21;31.92;;;21.33;;
49450;SDS011;35336;48.400;10.886;2024-01-30T01:06:36;33.17;;;21.33;;
49450;SDS011;35336;48.400;10.886;2024-01-30T01:06:54;31.15;;;21.55;;
49450;SDS011;35336;48.400;10.886;2024-01-30T01:07:09;31.30;;;21.57;;
49450;SDS011;35336;48.400;10.886;2024-01-30T01:07:25;32.50;;;21.65;;
49450;SDS011;35336;48.400;10.886;2024-01-30T01:07:40;32.97;;;21.60;;
49450;SDS011;35336;48.400;10.886;2024-01-30T01:07:55;33.73;;;22.40;;
49450;SDS011;35336;48.400;10.886;2024-01-30T01:08:11;32.40;;;22.83;;
49450;SDS011;35336;48.400;10.886;2024-01-30T01:08:26;30.37;;;21.63;;
49450;SDS011;35336;48.400;10.886;2024-01-30T01:08:41;33.60;;;21.50;;
49450;SDS011;35336;48.400;10.886;2024-01-30T01:08:56;34.73;;;22.23;;
49450;SDS011;35336;48.400;10.886;2024-01-30T01:09:12;32.63;;;21.87;;
49450;SDS011;35336;48.400;10.886;2024-01-30T01:09:27;32.13;;;21.53;;
49450;SDS011;35336;48.400;10.886;2024-01-30T01:09:45;31.67;;;21.30;;
49450;SDS011;35336;48.400;10.886;2024-01-30T01:10:00;32.60;;;21.67;;
49450;SDS011;35336;48.400;10.886;2024-01-30T01:10:18;31.20;;;21.42;;
49450;SDS011;35336;48.400;10.886;2024-01-30T01:10:34;29.10;;;20.48;;
49450;SDS011;35336;48.400;10.886;2024-01-30T01:10:49;29.30;;;20.05;;
49450;SDS011;35336;48.400;10.886;2024-01-30T01:11:05;28.57;;;20.17;;
49450;SDS011;35336;48.400;10.886;2024-01-30T01:11:22;32.00;;;21.52;;
49450;SDS011;35336;48.400;10.886;2024-01-30T01:11:38;33.28;;;22.17;;
49450;SDS011;35336;48.400;10.886;2024-01-30T01:11:53;33.75;;;21.48;;
49450;SDS011;35336;48.400;10.886;2024-01-30T01:12:11;33.35;;;21.75;;
49450;SDS011;35336;48.400;10.886;2024-01-30T01:12:26;32.47;;;22.08;;
49450;SDS011;35336;48.400;10.886;2024-01-30T01:12:41;30.23;;;20.83;;
49450;SDS011;35336;48.400;10.886;2024-01-30T01:12:57;31.67;;;20.20;;
49450;SDS011;35336;48.400;10.886;2024-01-30T01:13:12;32.17;;;21.10;;
49450;SDS011;35336;48.400;10.886;2024-01-30T01:13:27;30.13;;;21.45;;
49450;SDS011;35336;48.400;10.886;2024-01-30T01:13:45;31.10;;;21.30;;
49450;SDS011;35336;48.400;10.886;2024-01-30T01:14:00;31.05;;;21.50;;
49450;SDS011;35336;48.400;10.886;2024-01-30T01:14:15;31.77;;;21.58;;
49450;SDS011;35336;48.400;10.886;2024-01-30T01:14:31;31.80;;;21.23;;
49450;SDS011;35336;48.400;10.886;2024-01-30T01:14:46;30.70;;;20.93;;
49450;SDS011;35336;48.400;10.886;2024-01-30T01:15:01;30.52;;;20.90;;
49450;SDS011;35336;48.400;10.886;2024-01-30T01:15:19;31.88;;;21.45;;
49450;SDS011;35336;48.400;10.886;2024-01-30T01:15:34;32.83;;;20.63;;
49450;SDS011;35336;48.400;10.886;2024-01-30T01:15:50;30.42;;;20.10;;
49450;SDS011;35336;48.400;10.886;2024-01-30T01:16:05;29.80;;;21.07;;
49450;SDS011;35336;48.400;10.886;2024-01-30T01:16:20;29.93;;;21.37;;
49450;SDS011;35336;48.400;10.886;2024-01-30T01:16:36;29.53;;;21.27;;
49450;SDS011;35336;48.400;10.886;2024-01-30T01:16:51;30.83;;;21.00;;
49450;SDS011;35336;48.400;10.886;2024-01-30T01:17:06;31.47;;;20.97;;
49450;SDS011;35336;48.400;10.886;2024-01-30T01:17:21;34.83;;;21.23;;
49450;SDS011;35336;48.400;10.886;2024-01-30T01:17:40;34.83;;;20.90;;
49450;SDS011;35336;48.400;10.886;2024-01-30T01:17:55;33.25;;;20.67;;
49450;SDS011;35336;48.400;10.886;2024-01-30T01:18:10;32.83;;;21.33;;
49450;SDS011;35336;48.400;10.886;2024-01-30T01:18:28;33.42;;;21.33;;
49450;SDS011;35336;48.400;10.886;2024-01-30T01:18:43;33.42;;;20.55;;
49450;SDS011;35336;48.400;10.886;2024-01-30T01:18:58;31.83;;;20.07;;
49450;SDS011;35336;48.400;10.886;2024-01-30T01:19:14;30.47;;;20.13;;
49450;SDS011;35336;48.400;10.886;2024-01-30T01:19:31;29.20;;;20.33;;
49450;SDS011;35336;48.400;10.886;2024-01-30T01:19:47;29.13;;;20.33;;
49450;SDS011;35336;48.400;10.886;2024-01-30T01:20:02;31.50;;;20.63;;
49450;SDS011;35336;48.400;10.886;2024-01-30T01:20:18;32.33;;;21.15;;
49450;SDS011;35336;48.400;10.886;2024-01-30T01:20:33;31.37;;;21.03;;
49450;SDS011;35336;48.400;10.886;2024-01-30T01:20:49;33.53;;;21.25;;
49450;SDS011;35336;48.400;10.886;2024-01-30T01:21:04;31.30;;;20.67;;
49450;SDS011;35336;48.400;10.886;2024-01-30T01:21:19;29.20;;;20.00;;
49450;SDS011;35336;48.400;10.886;2024-01-30T01:21:34;30.13;;;20.30;;
49450;SDS011;35336;48.400;10.886;2024-01-30T01:21:50;31.67;;;20.52;;
49450;SDS011;35336;48.400;10.886;2024-01-30T01:22:05;31.43;;;20.17;;
49450;SDS011;35336;48.400;10.886;2024-01-30T01:22:20;30.37;;;21.07;;
49450;SDS011;35336;48.400;10.886;2024-01-30T01:22:35;30.00;;;21.43;;
49450;SDS011;35336;48.400;10.886;2024-01-30T01:22:51;30.60;;;20.70;;
49450;SDS011;35336;48.400;10.886;2024-01-30T01:23:06;34.03;;;20.42;;
49450;SDS011;35336;48.400;10.886;2024-01-30T01:23:21;32.83;;;20.30;;
49450;SDS011;35336;48.400;10.886;2024-01-30T01:23:36;33.87;;;20.80;;
49450;SDS011;35336;48.400;10.886;2024-01-30T01:23:54;34.10;;;21.17;;
49450;SDS011;35336;48.400;10.886;2024-01-30T01:24:12;29.70;;;20.75;;
49450;SDS011;35336;48.400;10.886;2024-01-30T01:24:31;31.55;;;20.58;;
49450;SDS011;35336;48.400;10.886;2024-01-30T01:24:48;31.53;;;20.20;;
49450;SDS011;35336;48.400;10.886;2024-01-30T01:25:04;30.65;;;20.00;;
49450;SDS011;35336;48.400;10.886;2024-01-30T01:25:19;30.20;;;19.75;;
49450;SDS011;35336;48.400;10.886;2024-01-30T01:25:35;29.70;;;20.13;;
49450;SDS011;35336;48.400;10.886;2024-01-30T01:25:50;32.83;;;20.70;;
49450;SDS011;35336;48.400;10.886;2024-01-30T01:26:07;32.83;;;19.77;;
49450;SDS011;35336;48.400;10.886;2024-01-30T01:26:23;33.38;;;20.42;;
49450;SDS011;35336;48.400;10.886;2024-01-30T01:26:38;32.17;;;21.07;;
49450;SDS011;35336;48.400;10.886;2024-01-30T01:26:56;30.70;;;20.63;;
49450;SDS011;35336;48.400;10.886;2024-01-30T01:27:11;30.27;;;20.10;;
49450;SDS011;35336;48.400;10.886;2024-01-30T01:27:26;30.03;;;19.97;;
49450;SDS011;35336;48.400;10.886;2024-01-30T01:27:42;32.42;;;20.63;;
49450;SDS011;35336;48.400;10.886;2024-01-30T01:27:57;32.20;;;21.00;;
49450;SDS011;35336;48.400;10.886;2024-01-30T01:28:13;30.53;;;20.90;;
49450;SDS011;35336;48.400;10.886;2024-01-30T01:28:28;29.77;;;20.13;;
49450;SDS011;35336;48.400;10.886;2024-01-30T01:28:45;29.50;;;20.60;;
49450;SDS011;35336;48.400;10.886;2024-01-30T01:29:01;28.50;;;20.40;;
49450;SDS011;35336;48.400;10.886;2024-01-30T01:29:16;30.70;;;20.00;;
49450;SDS011;35336;48.400;10.886;2024-01-30T01:29:31;32.97;;;20.90;;
49450;SDS011;35336;48.400;10.886;2024-01-30T01:29:46;33.38;;;21.42;;
49450;SDS011;35336;48.400;10.886;2024-01-30T01:30:04;31.77;;;20.45;;
49450;SDS011;35336;48.400;10.886;2024-01-30T01:30:23;30.58;;;20.35;;
49450;SDS011;35336;48.400;10.886;2024-01-30T01:30:38;29.40;;;20.40;;